createdAt,value
2018-05-03T00:00:26.714Z,99.90
2018-05-03T00:03:24.677Z,99.90
2018-05-03T00:06:22.376Z,99.90
2018-05-03T00:09:20.073Z,99.90
2018-05-03T00:12:17.904Z,99.90
2018-05-03T00:15:15.596Z,99.90
2018-05-03T00:18:13.365Z,99.90
2018-05-03T00:21:11.297Z,99.90
2018-05-03T00:24:09.183Z,99.90
2018-05-03T00:27:07.104Z,99.90
2018-05-03T00:30:04.606Z,99.90
2018-05-03T00:33:02.307Z,99.90
2018-05-03T00:36:00.036Z,99.90
2018-05-03T00:38:58.001Z,99.90
2018-05-03T00:41:55.760Z,99.90
2018-05-03T00:44:53.435Z,99.90
2018-05-03T00:47:51.679Z,99.90
2018-05-03T00:50:50.067Z,99.90
2018-05-03T00:53:47.839Z,99.90
2018-05-03T00:56:45.700Z,99.90
2018-05-03T00:59:43.599Z,99.90
2018-05-03T01:02:41.364Z,99.90
2018-05-03T01:05:39.331Z,99.90
2018-05-03T01:08:37.265Z,99.90
2018-05-03T01:11:35.094Z,99.90
2018-05-03T01:14:32.239Z,99.90
2018-05-03T01:17:29.847Z,99.90
2018-05-03T01:20:27.444Z,99.90
2018-05-03T01:23:25.073Z,99.90
2018-05-03T01:26:22.716Z,99.90
2018-05-03T01:29:20.357Z,99.90
2018-05-03T01:32:18.251Z,99.90
2018-05-03T01:35:28.063Z,99.90
2018-05-03T01:38:25.771Z,99.90
2018-05-03T01:41:23.638Z,99.90
2018-05-03T01:44:22.327Z,99.90
2018-05-03T01:47:20.200Z,99.90
2018-05-03T01:50:18.040Z,99.90
2018-05-03T01:53:15.726Z,99.90
2018-05-03T01:56:13.468Z,99.90
2018-05-03T01:59:11.391Z,99.90
2018-05-03T02:02:08.983Z,99.90
2018-05-03T02:25:12.958Z,99.90
2018-05-03T02:28:11.275Z,99.90
2018-05-03T02:31:08.799Z,99.90
2018-05-03T02:34:05.797Z,99.90
2018-05-03T02:37:03.174Z,99.90
2018-05-03T02:40:00.714Z,99.90
2018-05-03T02:42:57.829Z,99.90
2018-05-03T02:45:55.228Z,99.90
2018-05-03T02:48:52.523Z,99.90
2018-05-03T02:51:49.835Z,99.90
2018-05-03T02:54:47.169Z,99.90
2018-05-03T02:58:03.335Z,99.90
2018-05-03T03:01:19.322Z,99.90
2018-05-03T03:04:34.563Z,99.90
2018-05-03T03:07:43.932Z,99.90
2018-05-03T03:11:01.292Z,99.90
2018-05-03T03:18:06.642Z,99.90
2018-05-03T03:21:32.364Z,99.90
2018-05-03T03:24:45.390Z,99.90
2018-05-03T04:24:53.493Z,99.90
2018-05-03T04:27:51.192Z,99.90
2018-05-03T04:30:48.857Z,99.90
2018-05-03T04:33:46.679Z,99.90
2018-05-03T04:36:44.369Z,99.90
2018-05-03T04:39:42.123Z,99.90
2018-05-03T04:42:39.983Z,99.90
2018-05-03T04:45:37.598Z,99.90
2018-05-03T04:48:35.296Z,99.90
2018-05-03T04:51:32.476Z,99.90
2018-05-03T04:54:30.032Z,99.90
2018-05-03T04:57:27.819Z,99.90
2018-05-03T05:00:25.612Z,99.90
2018-05-03T05:03:23.478Z,99.90
2018-05-03T05:06:23.097Z,99.90
2018-05-03T05:09:20.891Z,99.90
2018-05-03T05:12:18.588Z,99.90
2018-05-03T05:15:15.696Z,99.90
2018-05-03T05:18:13.930Z,99.90
2018-05-03T05:21:12.387Z,99.90
2018-05-03T05:24:11.349Z,99.90
2018-05-03T05:27:08.518Z,99.90
2018-05-03T05:30:06.468Z,99.30
2018-05-03T05:33:04.220Z,99.00
2018-05-03T05:36:02.229Z,99.20
2018-05-03T05:39:00.093Z,98.80
2018-05-03T05:41:58.195Z,98.50
2018-05-03T05:44:55.837Z,98.20
2018-05-03T05:47:54.196Z,97.90
2018-05-03T05:50:52.095Z,97.90
2018-05-03T05:53:49.799Z,96.90
2018-05-03T05:56:47.758Z,96.70
2018-05-03T05:59:45.693Z,96.20
2018-05-03T06:02:44.682Z,95.40
2018-05-03T06:05:42.355Z,94.50
2018-05-03T06:08:40.332Z,93.00
2018-05-03T06:11:38.076Z,93.00
2018-05-03T06:14:35.834Z,93.10
2018-05-03T06:17:32.748Z,92.10
2018-05-03T06:20:30.710Z,91.30
2018-05-03T06:23:28.652Z,90.80
2018-05-03T06:26:27.761Z,89.80
2018-05-03T06:29:26.600Z,89.80
2018-05-03T06:32:24.487Z,90.60
2018-05-03T06:35:22.309Z,91.30
2018-05-03T06:38:20.096Z,90.90
2018-05-03T06:41:17.130Z,87.10
2018-05-03T06:44:14.705Z,85.00
2018-05-03T06:47:12.851Z,84.40
2018-05-03T06:50:10.238Z,85.20
2018-05-03T06:53:08.081Z,85.50
2018-05-03T06:56:05.809Z,85.50
2018-05-03T06:59:03.791Z,84.80
2018-05-03T07:02:01.544Z,82.70
2018-05-03T07:04:58.625Z,82.70
2018-05-03T07:07:55.757Z,83.60
2018-05-03T07:10:53.683Z,81.40
2018-05-03T07:13:50.832Z,82.10
2018-05-03T07:16:48.757Z,80.80
2018-05-03T07:19:47.478Z,81.10
2018-05-03T07:22:45.318Z,83.40
2018-05-03T07:25:43.187Z,83.40
2018-05-03T07:28:41.001Z,84.40
2018-05-03T07:31:38.685Z,84.50
2018-05-03T07:34:36.584Z,84.40
2018-05-03T07:37:34.386Z,81.50
2018-05-03T07:40:32.288Z,79.70
2018-05-03T07:43:29.921Z,74.60
2018-05-03T07:46:27.837Z,71.50
2018-05-03T07:49:25.827Z,70.80
2018-05-03T07:52:22.871Z,70.90
2018-05-03T07:55:20.457Z,68.00
2018-05-03T07:58:18.386Z,68.50
2018-05-03T08:01:17.218Z,62.80
2018-05-03T08:04:15.160Z,62.80
2018-05-03T08:07:13.675Z,65.60
2018-05-03T08:10:11.264Z,65.60
2018-05-03T08:13:09.174Z,65.80
2018-05-03T08:16:06.990Z,69.40
2018-05-03T08:19:04.879Z,72.10
2018-05-03T08:22:03.629Z,73.30
2018-05-03T08:25:01.412Z,73.20
2018-05-03T08:27:59.128Z,73.50
2018-05-03T08:30:56.881Z,71.70
2018-05-03T08:33:54.830Z,71.50
2018-05-03T08:36:52.491Z,70.80
2018-05-03T08:39:50.025Z,62.40
2018-05-03T08:42:47.806Z,54.10
2018-05-03T08:45:45.168Z,54.10
2018-05-03T08:48:42.935Z,46.60
2018-05-03T08:51:40.754Z,45.90
2018-05-03T08:54:38.618Z,46.90
2018-05-03T08:57:36.503Z,48.30
2018-05-03T09:00:34.193Z,60.20
2018-05-03T09:03:31.419Z,60.20
2018-05-03T09:06:30.235Z,74.30
2018-05-03T09:09:28.008Z,75.20
2018-05-03T09:12:25.704Z,83.70
2018-05-03T09:15:23.506Z,89.50
2018-05-03T09:18:22.130Z,93.80
2018-05-03T09:21:20.868Z,95.00
2018-05-03T09:24:18.581Z,95.00
2018-05-03T09:27:16.777Z,96.20
2018-05-03T09:30:14.576Z,96.20
2018-05-03T09:33:12.387Z,96.20
2018-05-03T09:36:10.116Z,97.00
2018-05-03T09:39:08.056Z,97.80
2018-05-03T09:42:05.912Z,98.90
2018-05-03T09:45:04.576Z,99.20
2018-05-03T09:48:02.477Z,99.30
2018-05-03T09:51:00.234Z,99.20
2018-05-03T09:53:57.272Z,99.00
2018-05-03T09:56:55.137Z,99.20
2018-05-03T09:59:54.000Z,98.60
2018-05-03T10:02:51.464Z,98.60
2018-05-03T10:05:49.420Z,98.60
2018-05-03T10:08:47.426Z,98.80
2018-05-03T10:11:45.206Z,98.00
2018-05-03T10:14:43.313Z,98.40
2018-05-03T10:17:41.130Z,98.60
2018-05-03T10:20:39.129Z,98.80
2018-05-03T10:23:37.107Z,99.00
2018-05-03T10:26:34.729Z,99.20
2018-05-03T10:29:32.360Z,99.40
2018-05-03T10:32:30.661Z,99.70
2018-05-03T10:35:28.670Z,99.90
2018-05-03T10:38:26.350Z,99.90
2018-05-03T10:41:24.347Z,99.90
2018-05-03T10:44:23.065Z,99.90
2018-05-03T10:47:21.046Z,99.90
2018-05-03T10:50:18.753Z,99.90
2018-05-03T10:53:16.412Z,99.90
2018-05-03T10:56:14.084Z,99.90
2018-05-03T10:59:12.656Z,99.90
2018-05-03T11:02:10.136Z,99.90
2018-05-03T11:05:08.535Z,99.90
2018-05-03T11:08:06.522Z,99.90
2018-05-03T11:11:04.530Z,99.90
2018-05-03T11:14:02.350Z,99.90
2018-05-03T11:17:00.135Z,99.90
2018-05-03T11:19:58.420Z,99.90
2018-05-03T11:22:56.072Z,99.90
2018-05-03T11:25:53.836Z,99.90
2018-05-03T11:28:51.631Z,99.90
2018-05-03T11:31:49.371Z,99.90
2018-05-03T11:34:47.255Z,99.90
2018-05-03T11:37:44.954Z,99.40
2018-05-03T11:40:42.760Z,98.20
2018-05-03T11:43:40.576Z,98.50
2018-05-03T11:46:38.385Z,98.10
2018-05-03T11:49:36.010Z,98.20
2018-05-03T11:52:33.228Z,98.30
2018-05-03T11:55:31.195Z,99.10
2018-05-03T11:58:28.817Z,99.10
2018-05-03T12:01:26.588Z,99.90
2018-05-03T12:04:24.523Z,99.90
2018-05-03T12:07:22.451Z,99.90
2018-05-03T12:10:20.351Z,99.90
2018-05-03T12:13:17.710Z,99.90
2018-05-03T12:16:15.482Z,99.90
2018-05-03T12:19:13.467Z,99.90
2018-05-03T12:22:11.315Z,99.90
2018-05-03T12:25:09.270Z,99.90
2018-05-03T12:28:06.474Z,99.90
2018-05-03T12:31:05.284Z,99.90
2018-05-03T12:34:02.996Z,99.90
2018-05-03T12:37:00.829Z,99.90
2018-05-03T12:39:58.575Z,99.90
2018-05-03T12:42:56.551Z,99.90
2018-05-03T12:45:56.214Z,99.90
2018-05-03T12:48:53.998Z,99.90
2018-05-03T12:51:52.818Z,99.90
2018-05-03T12:54:50.617Z,99.90
2018-05-03T12:57:48.548Z,99.90
2018-05-03T13:00:47.337Z,99.90
2018-05-03T13:03:45.329Z,99.90
2018-05-03T13:06:43.020Z,99.90
2018-05-03T13:09:40.883Z,99.90
2018-05-03T13:12:38.769Z,99.90
2018-05-03T13:15:36.563Z,99.90
2018-05-03T13:18:34.674Z,99.90
2018-05-03T13:21:32.506Z,99.90
2018-05-03T13:24:30.488Z,99.90
2018-05-03T13:27:28.524Z,99.90
2018-05-03T13:30:26.477Z,99.90
2018-05-03T13:33:24.456Z,99.90
2018-05-03T13:36:22.134Z,99.90
2018-05-03T13:39:20.080Z,99.90
2018-05-03T13:42:17.183Z,99.90
2018-05-03T13:45:15.230Z,99.90
2018-05-03T13:48:12.924Z,99.90
2018-05-03T13:51:10.060Z,99.90
2018-05-03T13:54:07.856Z,99.90
2018-05-03T13:57:05.613Z,99.90
2018-05-03T14:00:03.498Z,99.90
2018-05-03T14:03:01.028Z,99.90
2018-05-03T14:05:58.973Z,99.90
2018-05-03T14:08:56.948Z,99.90
2018-05-03T14:11:55.507Z,99.90
2018-05-03T14:14:53.457Z,99.90
2018-05-03T14:17:51.376Z,99.90
2018-05-03T14:20:49.325Z,99.90
2018-05-03T14:23:47.345Z,99.90
2018-05-03T14:26:45.224Z,99.90
2018-05-03T14:29:44.218Z,99.90
2018-05-03T14:32:41.948Z,99.90
2018-05-03T14:35:40.665Z,99.90
2018-05-03T14:38:38.263Z,99.90
2018-05-03T14:41:35.861Z,99.90
2018-05-03T14:44:33.824Z,99.90
2018-05-03T14:47:31.265Z,99.90
2018-05-03T14:50:29.124Z,99.90
2018-05-03T14:53:26.865Z,99.90
2018-05-03T14:56:25.705Z,99.90
2018-05-03T14:59:23.342Z,99.90
2018-05-03T15:02:21.223Z,99.90
2018-05-03T15:05:19.221Z,99.90
2018-05-03T15:08:16.854Z,99.90
2018-05-03T15:11:14.900Z,99.90
2018-05-03T15:14:13.277Z,99.90
2018-05-03T15:17:12.364Z,99.90
2018-05-03T15:20:10.478Z,99.90
2018-05-03T15:23:09.771Z,99.90
2018-05-03T15:26:07.386Z,99.90
2018-05-03T15:29:04.481Z,99.90
2018-05-03T15:32:03.155Z,99.90
2018-05-03T15:35:00.869Z,99.90
2018-05-03T15:38:01.614Z,99.90
2018-05-03T15:40:59.141Z,99.90
2018-05-03T15:43:56.763Z,99.90
2018-05-03T15:46:54.348Z,99.90
2018-05-03T15:49:52.417Z,99.90
2018-05-03T15:52:50.073Z,99.90
2018-05-03T15:55:47.645Z,99.90
2018-05-03T15:58:45.624Z,99.90
2018-05-03T16:01:43.211Z,99.90
2018-05-03T16:04:42.046Z,99.90
2018-05-03T16:07:40.919Z,99.90
2018-05-03T16:10:38.107Z,99.90
2018-05-03T16:13:36.331Z,99.90
2018-05-03T16:16:33.877Z,99.90
2018-05-03T16:19:32.196Z,99.90
2018-05-03T16:22:29.339Z,99.90
2018-05-03T16:25:27.151Z,99.90
2018-05-03T16:28:25.153Z,99.90
2018-05-03T16:31:23.445Z,99.90
2018-05-03T16:34:22.154Z,99.90
2018-05-03T16:37:19.904Z,99.90
2018-05-03T16:40:17.740Z,99.90
2018-05-03T16:43:16.007Z,99.90
2018-05-03T16:46:13.876Z,99.90
2018-05-03T16:49:11.482Z,99.90
2018-05-03T16:52:09.052Z,99.90
2018-05-03T16:55:06.174Z,99.90
2018-05-03T16:58:04.104Z,99.90
2018-05-03T17:01:01.955Z,99.90
2018-05-03T17:03:59.689Z,99.90
2018-05-03T17:06:57.569Z,99.90
2018-05-03T17:09:55.225Z,99.90
2018-05-03T17:12:54.070Z,99.90
2018-05-03T17:15:52.005Z,99.90
2018-05-03T17:18:49.825Z,99.90
2018-05-03T17:21:47.488Z,99.90
2018-05-03T17:24:45.555Z,99.90
2018-05-03T17:27:43.604Z,99.90
2018-05-03T17:30:41.344Z,99.90
2018-05-03T17:33:39.058Z,99.90
2018-05-03T17:36:37.186Z,99.90
2018-05-03T17:39:34.889Z,99.90
2018-05-03T17:42:32.487Z,99.90
2018-05-03T17:45:30.553Z,99.90
2018-05-03T17:48:29.359Z,99.90
2018-05-03T17:51:26.923Z,99.90
2018-05-03T17:54:24.600Z,99.90
2018-05-03T17:57:21.765Z,99.90
2018-05-03T18:00:19.619Z,99.90
2018-05-03T18:03:17.559Z,99.90
2018-05-03T18:06:15.376Z,99.90
2018-05-03T18:09:13.197Z,99.90
2018-05-03T18:12:11.937Z,99.90
2018-05-03T18:15:09.950Z,99.90
2018-05-03T18:18:07.916Z,99.90
2018-05-03T18:21:05.794Z,99.90
2018-05-03T18:24:03.859Z,99.90
2018-05-03T18:27:01.480Z,99.90
2018-05-03T18:29:59.504Z,99.90
2018-05-03T18:32:57.137Z,99.90
2018-05-03T18:35:55.802Z,99.90
2018-05-03T18:38:53.763Z,99.90
2018-05-03T18:41:51.174Z,99.90
2018-05-03T18:44:48.987Z,99.90
2018-05-03T18:47:46.755Z,99.90
2018-05-03T18:50:44.560Z,99.90
2018-05-03T18:53:42.437Z,99.90
2018-05-03T18:56:40.046Z,99.90
2018-05-03T18:59:37.657Z,99.90
2018-05-03T19:02:35.512Z,99.90
2018-05-03T19:05:33.846Z,99.90
2018-05-03T19:08:31.320Z,99.90
2018-05-03T19:11:29.924Z,99.90
2018-05-03T19:14:27.847Z,99.90
2018-05-03T19:17:26.405Z,99.90
2018-05-03T19:20:24.143Z,99.90
2018-05-03T19:23:22.417Z,99.90
2018-05-03T19:26:19.542Z,99.90
2018-05-03T19:29:18.005Z,99.90
2018-05-03T19:32:16.632Z,99.90
2018-05-03T19:35:14.853Z,99.90
2018-05-03T19:38:12.627Z,99.90
2018-05-03T19:41:10.497Z,99.90
2018-05-03T19:44:08.215Z,99.90
2018-05-03T19:47:05.878Z,99.90
2018-05-03T19:50:03.696Z,99.90
2018-05-03T19:53:01.573Z,99.90
2018-05-03T19:56:00.044Z,99.90
2018-05-03T19:58:58.066Z,99.90
2018-05-03T20:01:56.642Z,99.90
2018-05-03T20:04:53.673Z,99.90
2018-05-03T20:07:51.424Z,99.90
2018-05-03T20:10:49.350Z,99.90
2018-05-03T20:13:47.243Z,99.90
2018-05-03T20:16:45.347Z,99.90
2018-05-03T20:19:43.125Z,99.90
2018-05-03T20:22:41.112Z,99.90
2018-05-03T20:25:38.848Z,99.90
2018-05-03T20:28:37.458Z,99.90
2018-05-03T20:31:35.163Z,99.90
2018-05-03T20:34:32.925Z,99.90
2018-05-03T20:37:30.863Z,99.90
2018-05-03T20:40:28.746Z,99.90
2018-05-03T20:43:26.849Z,99.90
2018-05-03T20:46:26.370Z,99.90
2018-05-03T20:49:25.163Z,99.90
2018-05-03T20:52:23.192Z,99.90
2018-05-03T20:55:20.763Z,99.90
2018-05-03T20:58:18.829Z,99.90
2018-05-03T21:01:16.591Z,99.90
2018-05-03T21:04:14.337Z,99.90
2018-05-03T21:07:13.168Z,99.90
2018-05-03T21:10:10.829Z,99.90
2018-05-03T21:13:08.882Z,99.90
2018-05-03T21:16:06.486Z,99.90
2018-05-03T21:19:05.063Z,99.90
2018-05-03T21:22:02.533Z,99.90
2018-05-03T21:25:00.155Z,99.90
2018-05-03T21:27:57.668Z,99.90
2018-05-03T21:30:55.541Z,99.90
2018-05-03T21:33:53.364Z,99.90
2018-05-03T21:36:51.183Z,99.90
2018-05-03T21:39:49.033Z,99.90
2018-05-03T21:42:46.571Z,99.90
2018-05-03T21:45:45.059Z,99.90
2018-05-03T21:48:42.422Z,99.90
2018-05-03T21:51:40.448Z,99.90
2018-05-03T21:54:39.252Z,99.90
2018-05-03T21:57:36.290Z,99.90
2018-05-03T22:00:33.597Z,99.90
2018-05-03T22:03:31.194Z,99.90
2018-05-03T22:06:29.836Z,99.90
2018-05-03T22:09:27.761Z,99.90
2018-05-03T22:12:25.760Z,99.90
2018-05-03T22:15:24.490Z,99.90
2018-05-03T22:18:22.426Z,99.90
2018-05-03T22:21:20.461Z,99.90
2018-05-03T22:24:18.934Z,99.90
2018-05-03T22:27:16.513Z,99.90
2018-05-03T22:30:14.139Z,99.90
2018-05-03T22:33:11.278Z,99.90
2018-05-03T22:36:09.129Z,99.90
2018-05-03T22:39:06.855Z,99.90
2018-05-03T22:42:05.857Z,99.90
2018-05-03T22:45:03.765Z,99.90
2018-05-03T22:48:01.897Z,99.90
2018-05-03T22:50:58.958Z,99.90
2018-05-03T22:53:56.777Z,99.90
2018-05-03T22:56:53.777Z,99.90
2018-05-03T22:59:51.808Z,99.90
2018-05-03T23:02:49.641Z,99.90
2018-05-03T23:05:46.729Z,99.90
2018-05-03T23:08:45.447Z,99.90
2018-05-03T23:11:42.577Z,99.90
2018-05-03T23:14:40.445Z,99.90
2018-05-03T23:17:38.335Z,99.90
2018-05-03T23:20:35.984Z,99.90
2018-05-03T23:23:34.874Z,99.90
2018-05-03T23:26:32.962Z,99.90
2018-05-03T23:29:30.921Z,99.90
2018-05-03T23:32:28.751Z,99.90
2018-05-03T23:35:26.432Z,99.90
2018-05-03T23:38:24.489Z,99.90
2018-05-03T23:41:22.308Z,99.90
2018-05-03T23:44:20.053Z,99.90
2018-05-03T23:47:17.203Z,99.90
2018-05-03T23:50:14.773Z,99.90
2018-05-03T23:53:12.753Z,99.90
2018-05-03T23:56:10.784Z,99.90
2018-05-03T23:59:08.496Z,99.90
